Time;durP1;ratioP1;P1;durP2;ratioP2;P2;SDS_P1;SDS_P2;PMS_P1;PMS_P2;Temp;Humidity;BMP_temperature;BMP_pressure;BME280_temperature;BME280_humidity;BME280_pressure;Samples;Min_cycle;Max_cycle;Signal;HPM_P1;HPM_P2
2023/11/03 00:01:15;;;;;;;1.67;1.30;;;6.40;99.90;;;;;;5050275;28;20641;-63
2023/11/03 00:03:42;;;;;;;0.93;0.88;;;6.30;99.90;;;;;;5051016;28;20317;-63
2023/11/03 00:06:09;;;;;;;1.15;0.85;;;6.30;99.90;;;;;;5050820;28;20199;-62
2023/11/03 00:08:36;;;;;;;3.00;1.45;;;6.20;99.90;;;;;;5051463;28;20760;-63
2023/11/03 00:11:04;;;;;;;2.30;0.90;;;6.20;99.90;;;;;;5051388;28;20588;-63
2023/11/03 00:13:33;;;;;;;1.88;1.20;;;6.20;99.90;;;;;;5051221;28;20205;-62
2023/11/03 00:16:02;;;;;;;0.80;0.80;;;6.20;99.90;;;;;;5050827;28;20248;-63
2023/11/03 00:18:29;;;;;;;2.25;0.80;;;6.20;99.90;;;;;;5051051;28;20302;-62
2023/11/03 00:20:56;;;;;;;1.13;1.02;;;6.10;99.90;;;;;;5053024;28;20268;-63
2023/11/03 00:23:23;;;;;;;5.38;1.42;;;6.10;99.90;;;;;;5054515;28;20217;-63
2023/11/03 00:25:51;;;;;;;0.82;0.82;;;6.10;99.90;;;;;;5054529;28;20206;-62
2023/11/03 00:28:18;;;;;;;2.50;0.90;;;6.10;99.90;;;;;;5054915;28;20210;-63
2023/11/03 00:30:44;;;;;;;2.15;0.82;;;6.10;99.90;;;;;;5054252;28;20233;-62
2023/11/03 00:33:17;;;;;;;1.13;1.00;;;6.10;99.90;;;;;;5054414;28;20202;-63
2023/11/03 00:35:44;;;;;;;1.15;1.02;;;6.00;99.90;;;;;;5054212;28;20222;-63
2023/11/03 00:38:13;;;;;;;1.33;1.23;;;6.00;99.90;;;;;;5054620;28;20572;-63
2023/11/03 00:40:39;;;;;;;2.83;1.30;;;6.00;99.90;;;;;;5054696;28;20560;-63
2023/11/03 00:43:06;;;;;;;2.05;1.27;;;6.00;99.90;;;;;;5053959;28;20242;-63
2023/11/03 00:45:33;;;;;;;2.45;1.27;;;6.00;99.90;;;;;;5053512;28;20233;-62
2023/11/03 00:48:00;;;;;;;1.20;0.98;;;6.00;99.90;;;;;;5054410;28;20210;-63
2023/11/03 00:50:28;;;;;;;1.42;1.30;;;5.90;99.90;;;;;;5054350;28;20700;-63
2023/11/03 00:52:55;;;;;;;3.78;1.95;;;5.90;99.90;;;;;;5054298;28;20210;-63
2023/11/03 00:55:22;;;;;;;2.72;1.50;;;5.80;99.90;;;;;;5053912;28;20704;-62
2023/11/03 00:57:49;;;;;;;1.42;0.98;;;5.80;99.90;;;;;;5054476;28;20293;-63
2023/11/03 01:00:17;;;;;;;1.67;1.40;;;5.80;99.90;;;;;;5054182;28;20225;-63
2023/11/03 01:02:44;;;;;;;2.40;1.45;;;5.70;99.90;;;;;;5053645;28;20712;-63
2023/11/03 01:05:14;;;;;;;2.15;1.00;;;5.70;99.90;;;;;;5053366;28;20223;-63
2023/11/03 01:07:42;;;;;;;2.92;1.65;;;5.70;99.90;;;;;;5054250;28;20206;-63
2023/11/03 01:10:09;;;;;;;3.65;1.50;;;5.70;99.90;;;;;;5054201;28;20234;-63
2023/11/03 01:12:36;;;;;;;3.83;1.20;;;5.60;99.90;;;;;;5054188;28;20294;-63
2023/11/03 01:15:05;;;;;;;2.25;1.50;;;5.60;99.90;;;;;;5053994;28;20234;-63
2023/11/03 01:17:33;;;;;;;0.80;0.80;;;5.60;99.90;;;;;;5053922;28;20207;-63
2023/11/03 01:19:59;;;;;;;1.20;1.10;;;5.60;99.90;;;;;;5053581;28;20293;-63
2023/11/03 01:22:26;;;;;;;4.45;1.20;;;5.50;99.90;;;;;;5053184;28;20686;-63
2023/11/03 01:24:54;;;;;;;2.60;1.80;;;5.50;99.90;;;;;;5053257;28;20237;-63
2023/11/03 01:27:21;;;;;;;2.00;1.13;;;5.40;99.90;;;;;;5053380;28;20644;-63
2023/11/03 01:29:51;;;;;;;1.05;0.95;;;5.40;99.90;;;;;;5053700;28;20218;-63
2023/11/03 01:32:18;;;;;;;1.98;1.38;;;5.40;99.90;;;;;;5052270;28;20231;-63
2023/11/03 01:34:45;;;;;;;1.75;1.10;;;5.40;99.90;;;;;;5053362;28;20785;-63
2023/11/03 01:37:13;;;;;;;1.48;1.10;;;5.30;99.90;;;;;;5053370;28;20206;-63
2023/11/03 01:39:40;;;;;;;4.88;1.65;;;5.30;99.90;;;;;;5053295;28;20206;-63
2023/11/03 01:42:09;;;;;;;2.05;0.80;;;5.20;99.90;;;;;;5053735;28;20206;-63
2023/11/03 01:44:36;;;;;;;4.05;1.80;;;5.30;99.90;;;;;;5052831;28;20230;-63
2023/11/03 01:47:03;;;;;;;3.22;1.45;;;5.20;99.90;;;;;;5052058;28;20300;-63
2023/11/03 01:49:30;;;;;;;2.05;1.23;;;5.20;99.90;;;;;;5052519;28;20206;-63
2023/11/03 01:51:57;;;;;;;2.75;1.30;;;5.20;99.90;;;;;;5052403;28;20316;-63
2023/11/03 01:54:24;;;;;;;0.98;0.98;;;5.20;99.90;;;;;;5052179;28;20244;-63
2023/11/03 01:56:51;;;;;;;1.40;1.30;;;5.20;99.90;;;;;;5051892;28;20207;-63
2023/11/03 01:59:21;;;;;;;3.20;1.48;;;5.20;99.90;;;;;;5052554;28;20202;-63
2023/11/03 02:01:51;;;;;;;1.70;1.52;;;5.20;99.90;;;;;;5052782;28;20206;-63
2023/11/03 02:04:19;;;;;;;2.75;1.55;;;5.10;99.90;;;;;;5052422;28;20639;-63
2023/11/03 02:06:46;;;;;;;2.70;1.35;;;5.10;99.90;;;;;;5052042;28;20214;-63
2023/11/03 02:09:14;;;;;;;5.22;1.02;;;5.10;99.90;;;;;;5052552;28;20916;-63
2023/11/03 02:11:43;;;;;;;4.03;1.25;;;5.10;99.90;;;;;;5052518;28;20241;-63
2023/11/03 02:14:10;;;;;;;2.22;1.35;;;5.10;99.90;;;;;;5052412;28;20321;-63
2023/11/03 02:16:39;;;;;;;3.05;1.35;;;5.10;99.90;;;;;;5052094;28;20203;-63
2023/11/03 02:19:10;;;;;;;1.23;1.13;;;5.10;99.90;;;;;;5052505;28;20279;-63
2023/11/03 02:21:37;;;;;;;1.90;1.10;;;5.00;99.90;;;;;;5052203;28;20198;-63
2023/11/03 02:24:08;;;;;;;6.32;1.42;;;5.00;99.90;;;;;;5052328;28;20256;-63
2023/11/03 02:26:35;;;;;;;3.90;3.10;;;4.90;99.90;;;;;;5052322;28;20206;-63
2023/11/03 02:29:03;;;;;;;1.70;1.20;;;4.90;99.90;;;;;;5052038;28;20202;-63
2023/11/03 02:31:30;;;;;;;2.08;1.90;;;4.90;99.90;;;;;;5051917;28;20226;-63
2023/11/03 02:33:57;;;;;;;7.38;1.80;;;4.90;99.90;;;;;;5051691;28;20313;-63
2023/11/03 02:36:24;;;;;;;2.15;1.20;;;4.90;99.90;;;;;;5051559;28;20285;-63
2023/11/03 02:38:52;;;;;;;1.10;1.05;;;4.80;99.90;;;;;;5051812;28;20742;-63
2023/11/03 02:41:21;;;;;;;1.58;1.35;;;4.80;99.90;;;;;;5052115;28;20293;-63
2023/11/03 02:43:48;;;;;;;1.63;1.30;;;4.80;99.90;;;;;;5051577;28;20668;-63
2023/11/03 02:46:15;;;;;;;2.10;1.10;;;4.80;99.90;;;;;;5050966;28;20592;-63
2023/11/03 02:48:42;;;;;;;1.10;1.00;;;4.80;99.90;;;;;;5051503;28;20308;-63
2023/11/03 02:51:09;;;;;;;4.55;1.90;;;4.70;99.90;;;;;;5051572;28;20226;-63
2023/11/03 02:53:36;;;;;;;1.85;1.08;;;4.70;99.90;;;;;;5051658;28;20202;-63
2023/11/03 02:56:03;;;;;;;2.97;1.50;;;4.70;99.90;;;;;;5051316;28;20210;-63
2023/11/03 02:58:34;;;;;;;3.33;2.05;;;4.70;99.90;;;;;;5051491;28;20228;-63
2023/11/03 03:01:01;;;;;;;3.45;1.77;;;4.70;99.90;;;;;;5051453;28;20213;-63
2023/11/03 03:03:28;;;;;;;3.60;1.23;;;4.70;99.90;;;;;;5051526;28;20225;-63
2023/11/03 03:05:54;;;;;;;1.60;1.50;;;4.60;99.90;;;;;;5051219;28;20210;-64
2023/11/03 03:08:21;;;;;;;1.20;1.10;;;4.70;99.90;;;;;;5051205;28;20296;-63
2023/11/03 03:10:48;;;;;;;1.63;1.52;;;4.60;99.90;;;;;;5051308;28;20213;-63
2023/11/03 03:13:15;;;;;;;2.30;1.30;;;4.60;99.90;;;;;;5051442;28;20210;-63
2023/11/03 03:15:42;;;;;;;1.17;1.17;;;4.60;99.90;;;;;;5050917;28;20752;-63
2023/11/03 03:18:09;;;;;;;1.52;1.25;;;4.60;99.90;;;;;;5051184;28;20212;-63
2023/11/03 03:20:36;;;;;;;1.90;1.20;;;4.50;99.90;;;;;;5051294;28;20589;-63
2023/11/03 03:23:03;;;;;;;2.08;0.77;;;4.50;99.90;;;;;;5051451;28;20607;-63
2023/11/03 03:25:30;;;;;;;1.83;1.50;;;4.50;99.90;;;;;;5050258;28;20233;-63
2023/11/03 03:27:57;;;;;;;1.80;1.40;;;4.40;99.90;;;;;;5051419;28;20649;-63
2023/11/03 03:30:24;;;;;;;4.72;1.42;;;4.40;99.90;;;;;;5051203;28;20206;-63
2023/11/03 03:32:52;;;;;;;5.93;1.35;;;4.40;99.90;;;;;;5051099;28;20234;-63
2023/11/03 03:35:19;;;;;;;1.40;1.15;;;4.30;99.90;;;;;;5051180;28;20222;-63
2023/11/03 03:37:46;;;;;;;1.85;1.70;;;4.30;99.90;;;;;;5051333;28;20706;-63
2023/11/03 03:40:13;;;;;;;2.90;1.30;;;4.30;99.90;;;;;;5051242;28;20301;-64
2023/11/03 03:42:40;;;;;;;3.28;1.88;;;4.30;99.90;;;;;;5051039;28;20206;-64
2023/11/03 03:45:08;;;;;;;3.20;1.33;;;4.30;99.90;;;;;;5051015;28;20222;-64
2023/11/03 03:47:35;;;;;;;1.70;1.60;;;4.30;99.90;;;;;;5051266;28;20220;-63
2023/11/03 03:50:03;;;;;;;1.33;1.23;;;4.30;99.90;;;;;;5051369;28;20664;-63
2023/11/03 03:52:31;;;;;;;1.60;1.30;;;4.40;99.90;;;;;;5051199;28;20230;-63
2023/11/03 03:54:58;;;;;;;1.45;1.27;;;4.30;99.90;;;;;;5052040;28;20256;-63
2023/11/03 03:57:25;;;;;;;2.05;1.48;;;4.30;99.90;;;;;;5054806;28;20301;-63
2023/11/03 03:59:52;;;;;;;2.35;1.75;;;4.40;99.90;;;;;;5054681;28;20206;-63
2023/11/03 04:02:19;;;;;;;1.23;1.13;;;4.40;99.90;;;;;;5054951;28;20588;-63
2023/11/03 04:04:45;;;;;;;1.98;1.88;;;4.40;99.90;;;;;;5054365;28;20230;-63
2023/11/03 04:07:13;;;;;;;2.38;1.30;;;4.50;99.90;;;;;;5054722;28;20228;-63
2023/11/03 04:09:41;;;;;;;1.50;1.40;;;4.50;99.90;;;;;;5054745;28;20213;-64
2023/11/03 04:12:08;;;;;;;6.10;1.90;;;4.50;99.90;;;;;;5054524;28;20225;-63
2023/11/03 04:14:35;;;;;;;1.88;1.77;;;4.60;99.90;;;;;;5054758;28;20313;-63
2023/11/03 04:17:03;;;;;;;1.45;1.30;;;4.60;99.90;;;;;;5054464;28;20292;-63
2023/11/03 04:19:49;;;;;;;1.15;1.15;;;4.60;99.90;;;;;;5031727;28;20693;-63
2023/11/03 04:22:17;;;;;;;1.38;1.20;;;4.70;99.90;;;;;;5031691;28;20302;-63
2023/11/03 04:24:44;;;;;;;4.93;1.25;;;4.70;99.90;;;;;;5031887;28;20329;-64
2023/11/03 04:27:10;;;;;;;3.10;1.25;;;4.70;99.90;;;;;;5031720;28;20221;-63
2023/11/03 04:29:37;;;;;;;2.70;1.23;;;4.70;99.90;;;;;;5032188;28;20623;-63
2023/11/03 04:32:05;;;;;;;2.88;1.63;;;4.80;99.90;;;;;;5032131;28;20237;-63
2023/11/03 04:34:31;;;;;;;2.50;1.52;;;4.80;99.90;;;;;;5032026;28;20239;-63
2023/11/03 04:36:58;;;;;;;3.30;1.48;;;4.80;99.90;;;;;;5033335;28;20298;-64
2023/11/03 04:39:27;;;;;;;1.45;1.35;;;4.80;99.90;;;;;;5054314;28;20202;-63
2023/11/03 04:41:54;;;;;;;2.22;1.20;;;4.80;99.90;;;;;;5054390;28;20573;-63
2023/11/03 04:44:20;;;;;;;1.50;1.40;;;4.70;99.90;;;;;;5053952;28;20230;-64
2023/11/03 04:46:47;;;;;;;2.50;1.50;;;4.70;99.90;;;;;;5053809;28;20702;-63
2023/11/03 04:49:14;;;;;;;1.02;0.93;;;4.70;99.90;;;;;;5054176;28;20301;-63
2023/11/03 04:51:41;;;;;;;2.05;1.60;;;4.70;99.90;;;;;;5054028;28;20230;-63
2023/11/03 04:54:09;;;;;;;2.47;1.42;;;4.60;99.90;;;;;;5053816;28;20241;-64
2023/11/03 04:56:37;;;;;;;2.15;1.30;;;4.60;99.90;;;;;;5053684;28;20210;-63
2023/11/03 04:59:05;;;;;;;1.20;1.20;;;4.60;99.90;;;;;;5053716;28;20289;-63
2023/11/03 05:01:33;;;;;;;1.55;1.45;;;4.60;99.90;;;;;;5053954;28;20209;-64
2023/11/03 05:04:00;;;;;;;2.22;1.00;;;4.60;99.90;;;;;;5054023;28;20249;-64
2023/11/03 05:06:27;;;;;;;5.53;2.10;;;4.60;99.90;;;;;;5053488;28;20297;-63
2023/11/03 05:08:54;;;;;;;4.68;1.23;;;4.70;99.90;;;;;;5053888;28;20592;-63
2023/11/03 05:11:21;;;;;;;2.40;1.27;;;4.70;99.90;;;;;;5053745;28;20213;-63
2023/11/03 05:13:49;;;;;;;1.95;1.85;;;4.60;99.90;;;;;;5053480;28;20234;-63
2023/11/03 05:16:16;;;;;;;1.55;1.42;;;4.70;99.90;;;;;;5053391;28;20305;-64
2023/11/03 05:18:43;;;;;;;2.65;1.58;;;4.70;99.90;;;;;;5053787;28;20293;-63
2023/11/03 05:21:12;;;;;;;1.23;1.10;;;4.70;99.90;;;;;;5053650;28;20232;-63
2023/11/03 05:23:39;;;;;;;2.95;1.35;;;4.80;99.90;;;;;;5053485;28;20210;-64
2023/11/03 05:26:06;;;;;;;1.40;1.30;;;4.80;99.90;;;;;;5053062;28;20207;-63
2023/11/03 05:28:33;;;;;;;2.90;1.52;;;4.80;99.90;;;;;;5053689;28;20218;-64
2023/11/03 05:31:02;;;;;;;1.33;1.23;;;4.80;99.90;;;;;;5053608;28;20299;-63
2023/11/03 05:33:28;;;;;;;4.07;2.00;;;4.90;99.90;;;;;;5053581;28;20600;-64
2023/11/03 05:35:55;;;;;;;1.40;1.30;;;4.90;99.90;;;;;;5053383;28;20297;-63
2023/11/03 05:38:22;;;;;;;1.98;1.42;;;5.00;99.90;;;;;;5053315;28;20293;-64
2023/11/03 05:40:49;;;;;;;2.17;1.65;;;5.00;99.90;;;;;;5052118;28;20297;-63
2023/11/03 05:43:16;;;;;;;2.28;1.92;;;5.10;99.90;;;;;;5053346;28;20203;-63
2023/11/03 05:45:42;;;;;;;3.30;1.85;;;5.20;99.90;;;;;;5052764;28;20229;-64
2023/11/03 05:48:11;;;;;;;2.50;2.25;;;5.20;99.90;;;;;;5053474;28;20293;-64
2023/11/03 05:50:37;;;;;;;1.55;1.45;;;5.30;99.90;;;;;;5053202;28;20216;-64
2023/11/03 05:53:04;;;;;;;1.75;1.65;;;5.40;99.90;;;;;;5052917;28;20657;-64
2023/11/03 05:55:31;;;;;;;2.13;1.65;;;5.40;99.90;;;;;;5052821;28;20238;-64
2023/11/03 05:57:58;;;;;;;1.95;1.85;;;5.50;99.90;;;;;;5053166;28;20298;-64
2023/11/03 06:00:28;;;;;;;2.05;1.58;;;5.50;99.90;;;;;;5052911;28;20214;-64
2023/11/03 06:02:55;;;;;;;3.42;1.60;;;5.60;99.90;;;;;;5053026;28;20194;-63
2023/11/03 06:05:23;;;;;;;4.30;2.10;;;5.70;99.90;;;;;;5075926;22;20216;-66
2023/11/03 06:07:51;;;;;;;1.73;1.63;;;5.80;99.90;;;;;;5052030;28;20209;-65
2023/11/03 06:10:18;;;;;;;2.30;2.13;;;5.90;99.90;;;;;;5051369;28;20590;-66
2023/11/03 06:12:46;;;;;;;2.03;1.77;;;5.90;99.90;;;;;;5051751;28;20779;-66
2023/11/03 06:15:13;;;;;;;2.33;1.92;;;6.00;99.90;;;;;;5051723;28;20742;-66
2023/11/03 06:17:40;;;;;;;2.95;1.85;;;6.00;99.90;;;;;;5052098;28;20672;-66
2023/11/03 06:20:09;;;;;;;5.20;2.05;;;6.10;99.90;;;;;;5052391;28;20301;-65
2023/11/03 06:22:37;;;;;;;2.92;1.85;;;6.10;99.90;;;;;;5052383;28;20207;-66
2023/11/03 06:25:04;;;;;;;5.38;1.95;;;6.20;99.90;;;;;;5052652;28;20213;-66
2023/11/03 06:27:31;;;;;;;3.35;2.50;;;6.30;99.90;;;;;;5052138;28;20205;-65
2023/11/03 06:29:58;;;;;;;7.13;4.45;;;6.30;99.90;;;;;;5051937;28;20198;-66
2023/11/03 06:32:25;;;;;;;10.13;5.55;;;6.40;99.90;;;;;;5051823;28;20226;-66
2023/11/03 06:34:51;;;;;;;4.43;1.95;;;6.50;99.90;;;;;;5052148;28;20212;-66
2023/11/03 06:37:18;;;;;;;3.92;2.42;;;6.50;99.90;;;;;;5051842;28;20229;-66
2023/11/03 06:39:50;;;;;;;2.35;1.80;;;6.60;99.90;;;;;;5051850;28;20206;-66
2023/11/03 06:42:17;;;;;;;3.13;2.83;;;6.60;99.90;;;;;;5052002;28;20677;-66
2023/11/03 06:44:44;;;;;;;3.83;3.47;;;6.70;99.90;;;;;;5050979;28;20246;-66
2023/11/03 06:47:11;;;;;;;5.53;2.30;;;6.80;99.90;;;;;;5050272;28;20257;-66
2023/11/03 06:49:38;;;;;;;3.38;2.45;;;6.80;99.90;;;;;;5051371;28;20636;-66
2023/11/03 06:52:06;;;;;;;40.13;13.80;;;6.90;99.90;;;;;;5051569;28;20229;-66
2023/11/03 06:54:32;;;;;;;17.95;7.03;;;7.00;99.90;;;;;;5051511;28;20207;-66
2023/11/03 06:57:01;;;;;;;3.20;2.80;;;7.00;99.90;;;;;;5051365;28;20578;-66
2023/11/03 06:59:28;;;;;;;5.88;2.83;;;7.10;99.90;;;;;;5051350;28;20654;-66
2023/11/03 07:01:55;;;;;;;5.78;3.60;;;7.10;99.90;;;;;;5051601;28;20214;-66
2023/11/03 07:04:24;;;;;;;8.93;6.03;;;7.20;99.90;;;;;;5051349;28;20207;-66
2023/11/03 07:06:51;;;;;;;10.98;4.63;;;7.20;99.90;;;;;;5050524;28;20253;-66
2023/11/03 07:09:18;;;;;;;3.70;2.25;;;7.30;99.90;;;;;;5051552;28;20617;-66
2023/11/03 07:11:45;;;;;;;3.60;2.40;;;7.30;99.90;;;;;;5051195;28;20681;-66
2023/11/03 07:14:13;;;;;;;3.22;2.47;;;7.40;99.90;;;;;;5051141;28;20207;-66
2023/11/03 07:16:42;;;;;;;3.15;1.70;;;7.50;99.90;;;;;;5050910;28;20241;-66
2023/11/03 07:19:09;;;;;;;10.95;2.38;;;7.50;99.90;;;;;;5051003;28;20206;-66
2023/11/03 07:21:36;;;;;;;3.33;1.80;;;7.60;99.90;;;;;;5051151;28;20217;-66
2023/11/03 07:24:03;;;;;;;44.53;15.35;;;7.60;99.90;;;;;;5051182;28;20616;-66
2023/11/03 07:26:30;;;;;;;2.42;1.77;;;7.60;99.90;;;;;;5049609;28;20248;-66
2023/11/03 07:28:57;;;;;;;1.98;1.77;;;7.70;99.90;;;;;;5050481;28;20202;-66
2023/11/03 07:31:25;;;;;;;11.45;4.90;;;7.70;99.90;;;;;;5055024;28;20202;-66
2023/11/03 07:33:54;;;;;;;3.42;2.92;;;7.80;99.90;;;;;;5055250;28;20237;-66
2023/11/03 07:36:21;;;;;;;4.32;2.60;;;7.80;99.90;;;;;;5054879;28;20226;-66
2023/11/03 07:38:48;;;;;;;4.22;2.47;;;7.90;99.90;;;;;;5055194;28;20208;-66
2023/11/03 07:41:14;;;;;;;3.88;3.17;;;7.90;99.90;;;;;;5055071;28;20216;-66
2023/11/03 07:43:41;;;;;;;6.07;2.22;;;7.90;99.90;;;;;;5054935;28;20234;-66
2023/11/03 07:46:09;;;;;;;3.15;2.38;;;8.00;99.90;;;;;;5054798;28;20226;-66
2023/11/03 07:48:39;;;;;;;3.13;1.90;;;8.00;99.90;;;;;;5054953;28;20232;-66
2023/11/03 07:51:06;;;;;;;3.15;2.10;;;8.00;99.90;;;;;;5054836;28;20206;-66
2023/11/03 07:53:33;;;;;;;7.28;2.13;;;8.00;99.90;;;;;;5054745;28;20218;-66
2023/11/03 07:56:00;;;;;;;5.13;2.50;;;8.10;99.90;;;;;;5054548;28;20229;-66
2023/11/03 07:58:27;;;;;;;4.50;2.05;;;8.10;99.90;;;;;;5055094;28;20506;-65
2023/11/03 08:00:57;;;;;;;4.10;2.47;;;8.10;99.90;;;;;;5053140;28;20294;-66
2023/11/03 08:03:24;;;;;;;3.88;2.70;;;8.20;99.90;;;;;;5054088;28;20289;-66
2023/11/03 08:05:53;;;;;;;2.20;2.00;;;8.20;99.90;;;;;;5053772;28;20234;-65
2023/11/03 08:08:20;;;;;;;4.25;2.08;;;8.20;99.90;;;;;;5054122;28;20206;-66
2023/11/03 08:10:49;;;;;;;7.25;2.33;;;8.30;99.90;;;;;;5053568;28;20237;-65
2023/11/03 08:13:16;;;;;;;7.40;2.22;;;8.30;99.90;;;;;;5053659;28;20356;-65
2023/11/03 08:15:43;;;;;;;1.83;1.55;;;8.30;99.90;;;;;;5053061;28;20226;-65
2023/11/03 08:18:11;;;;;;;1.98;1.88;;;8.20;99.90;;;;;;5051396;28;20217;-65
2023/11/03 08:20:38;;;;;;;2.08;1.52;;;8.30;99.90;;;;;;5053727;28;20210;-66
2023/11/03 08:23:06;;;;;;;2.40;1.63;;;8.30;99.90;;;;;;5052715;28;20222;-65
2023/11/03 08:25:33;;;;;;;5.32;2.00;;;8.30;99.90;;;;;;5053436;28;20257;-65
2023/11/03 08:28:00;;;;;;;3.38;1.55;;;8.30;99.90;;;;;;5045471;28;20242;-66
2023/11/03 08:30:27;;;;;;;9.18;1.88;;;8.30;99.90;;;;;;5053663;28;20206;-65
2023/11/03 08:32:54;;;;;;;3.75;2.55;;;8.30;99.90;;;;;;5052738;28;20584;-65
2023/11/03 08:35:21;;;;;;;7.40;2.00;;;8.40;99.90;;;;;;5053053;28;20206;-65
2023/11/03 08:37:48;;;;;;;2.80;1.70;;;8.40;99.90;;;;;;5052749;28;20740;-66
2023/11/03 08:40:17;;;;;;;3.60;2.13;;;8.40;99.90;;;;;;5052868;28;20285;-65
2023/11/03 08:42:44;;;;;;;6.65;3.45;;;8.40;99.90;;;;;;5052565;28;20587;-65
2023/11/03 08:45:11;;;;;;;2.63;1.90;;;8.50;99.90;;;;;;5045221;28;20210;-65
2023/11/03 08:47:41;;;;;;;3.88;1.92;;;8.50;99.90;;;;;;5052543;28;20242;-65
2023/11/03 08:50:08;;;;;;;2.15;1.35;;;8.50;99.90;;;;;;5053088;28;20202;-65
2023/11/03 08:52:35;;;;;;;3.97;1.43;;;8.60;99.90;;;;;;5045633;28;20214;-66
2023/11/03 08:55:06;;;;;;;3.75;1.80;;;8.60;99.90;;;;;;5052922;28;20453;-65
2023/11/03 08:57:34;;;;;;;4.75;2.22;;;8.60;99.90;;;;;;5052994;28;20284;-65
2023/11/03 09:00:02;;;;;;;8.32;2.95;;;8.70;99.90;;;;;;5052577;28;20294;-65
2023/11/03 09:02:29;;;;;;;6.30;2.10;;;8.70;99.90;;;;;;5050169;28;20213;-65
2023/11/03 09:04:56;;;;;;;3.75;2.83;;;8.70;99.90;;;;;;5050775;28;20294;-66
2023/11/03 09:07:23;;;;;;;4.40;2.77;;;8.70;99.90;;;;;;5049949;28;20234;-65
2023/11/03 09:09:51;;;;;;;2.28;1.67;;;8.80;99.90;;;;;;5052512;28;20445;-65
2023/11/03 09:12:18;;;;;;;4.28;2.53;;;8.80;99.90;;;;;;5052144;28;20210;-65
2023/11/03 09:14:54;;;;;;;2.10;1.67;;;8.90;99.90;;;;;;5052114;28;20628;-65
2023/11/03 09:17:20;;;;;;;3.05;2.10;;;8.90;99.90;;;;;;5047725;28;20468;-66
2023/11/03 09:19:47;;;;;;;4.25;2.40;;;8.90;99.90;;;;;;5052208;28;20664;-65
2023/11/03 09:22:14;;;;;;;1.80;1.70;;;8.90;99.90;;;;;;5051803;28;20202;-65
2023/11/03 09:24:41;;;;;;;2.60;2.40;;;8.90;99.90;;;;;;5051370;28;20199;-66
2023/11/03 09:27:08;;;;;;;2.35;2.15;;;9.00;99.90;;;;;;5051490;28;20232;-66
2023/11/03 09:29:35;;;;;;;2.40;2.20;;;9.00;99.90;;;;;;5048186;28;20218;-65
2023/11/03 09:32:03;;;;;;;3.03;1.80;;;9.00;99.90;;;;;;5051241;28;20206;-66
2023/11/03 09:34:31;;;;;;;2.83;1.90;;;9.10;99.90;;;;;;5051575;28;20530;-66
2023/11/03 09:37:02;;;;;;;3.30;2.27;;;9.10;99.90;;;;;;5051109;28;20230;-65
2023/11/03 09:39:30;;;;;;;2.25;1.65;;;9.10;99.90;;;;;;5051561;28;20947;-66
2023/11/03 09:42:02;;;;;;;2.55;1.83;;;9.10;99.90;;;;;;5051795;28;20652;-65
2023/11/03 09:44:30;;;;;;;1.90;1.80;;;9.10;99.90;;;;;;5051708;28;20207;-65
2023/11/03 09:47:00;;;;;;;4.25;1.60;;;9.10;99.90;;;;;;5051139;28;20346;-65
2023/11/03 09:49:28;;;;;;;1.45;0.95;;;9.10;99.90;;;;;;5051605;28;20217;-65
2023/11/03 09:52:03;;;;;;;3.83;2.13;;;9.10;99.90;;;;;;5050120;28;20302;-65
2023/11/03 09:54:32;;;;;;;1.40;1.30;;;9.10;99.90;;;;;;5050503;28;20240;-66
2023/11/03 09:57:00;;;;;;;2.22;1.30;;;9.10;99.90;;;;;;5049781;28;20338;-65
2023/11/03 09:59:28;;;;;;;2.75;1.20;;;9.10;99.90;;;;;;5050294;28;20226;-66
2023/11/03 10:01:55;;;;;;;7.30;2.40;;;9.20;99.90;;;;;;5047605;28;20202;-65
2023/11/03 10:04:22;;;;;;;3.75;1.42;;;9.20;99.90;;;;;;5050848;28;20203;-65
2023/11/03 10:06:50;;;;;;;1.70;1.60;;;9.20;99.90;;;;;;5048596;28;20323;-67
2023/11/03 10:09:18;;;;;;;2.85;1.25;;;9.20;99.90;;;;;;5050522;28;20225;-65
2023/11/03 10:11:45;;;;;;;1.98;1.60;;;9.20;99.90;;;;;;5049009;28;20202;-65
2023/11/03 10:14:12;;;;;;;3.83;1.70;;;9.30;99.90;;;;;;5046364;28;20272;-66
2023/11/03 10:16:39;;;;;;;3.97;3.67;;;9.30;99.90;;;;;;5048820;28;20233;-65
2023/11/03 10:19:06;;;;;;;2.30;1.30;;;9.30;99.90;;;;;;5050091;28;20207;-65
2023/11/03 10:21:34;;;;;;;1.52;1.48;;;9.30;99.90;;;;;;5043976;28;20206;-66
2023/11/03 10:24:02;;;;;;;1.13;1.02;;;9.30;99.90;;;;;;5050405;28;20202;-66
2023/11/03 10:26:29;;;;;;;1.27;1.10;;;9.30;99.90;;;;;;5046311;28;20713;-65
2023/11/03 10:28:56;;;;;;;2.72;1.27;;;9.30;99.90;;;;;;5050092;28;20448;-66
2023/11/03 10:31:26;;;;;;;2.80;1.20;;;9.40;99.90;;;;;;5050404;28;20716;-65
2023/11/03 10:33:55;;;;;;;2.23;1.50;;;9.50;99.90;;;;;;5050123;28;20489;-66
2023/11/03 10:36:22;;;;;;;5.70;1.95;;;9.50;99.90;;;;;;5047278;28;21046;-65
2023/11/03 10:38:49;;;;;;;2.83;2.10;;;9.50;99.90;;;;;;5042019;28;20202;-65
2023/11/03 10:41:20;;;;;;;1.98;1.45;;;9.50;99.90;;;;;;5050573;28;20199;-65
2023/11/03 10:43:56;;;;;;;2.40;2.08;;;9.60;99.90;;;;;;5049705;28;20203;-66
2023/11/03 10:46:36;;;;;;;1.63;1.53;;;9.60;99.90;;;;;;5047533;28;20228;-65
2023/11/03 10:49:12;;;;;;;4.27;1.80;;;9.60;99.90;;;;;;5049163;28;20524;-66
2023/11/03 10:51:45;;;;;;;3.20;1.30;;;9.70;99.90;;;;;;5049624;28;20922;-66
2023/11/03 10:54:22;;;;;;;2.90;1.60;;;9.70;99.90;;;;;;5041445;28;20222;-66
2023/11/03 10:56:51;;;;;;;2.23;1.20;;;9.70;99.90;;;;;;5048480;28;20226;-65
2023/11/03 10:59:19;;;;;;;3.73;1.57;;;9.80;99.90;;;;;;5042848;28;20883;-65
2023/11/03 11:01:52;;;;;;;3.00;2.27;;;9.80;99.90;;;;;;5047372;28;20477;-65
2023/11/03 11:04:24;;;;;;;2.90;2.73;;;9.80;99.90;;;;;;5042690;28;20437;-65
2023/11/03 11:06:56;;;;;;;2.37;1.43;;;9.90;99.90;;;;;;5047000;28;20484;-65
2023/11/03 11:09:34;;;;;;;1.80;1.60;;;9.90;99.90;;;;;;5046583;28;20457;-65
2023/11/03 11:12:02;;;;;;;2.30;2.10;;;9.90;99.90;;;;;;5049571;28;20449;-65
2023/11/03 11:14:33;;;;;;;6.50;4.00;;;9.90;99.90;;;;;;5049681;28;20485;-65
2023/11/03 11:17:00;;;;;;;3.30;1.70;;;9.90;99.90;;;;;;5047542;28;20560;-65
2023/11/03 11:19:35;;;;;;;3.70;1.30;;;10.00;99.90;;;;;;5048491;28;20451;-65
2023/11/03 11:22:04;;;;;;;4.27;1.63;;;10.00;99.90;;;;;;5048656;28;20448;-65
2023/11/03 11:24:32;;;;;;;3.57;1.80;;;10.00;99.90;;;;;;5049909;28;21128;-65
2023/11/03 11:27:18;;;;;;;5.43;2.27;;;10.10;99.90;;;;;;5048924;28;20461;-64
2023/11/03 11:29:45;;;;;;;7.13;4.63;;;10.10;99.90;;;;;;5049276;28;20447;-65
2023/11/03 11:32:13;;;;;;;2.83;2.22;;;10.10;99.90;;;;;;5049391;28;20202;-65
2023/11/03 11:34:41;;;;;;;4.70;2.10;;;10.00;99.90;;;;;;5049248;28;20222;-65
2023/11/03 11:37:29;;;;;;;3.23;2.50;;;10.00;99.90;;;;;;5049610;28;20469;-65
2023/11/03 11:39:57;;;;;;;2.03;1.33;;;10.10;99.90;;;;;;5049811;28;20449;-65
2023/11/03 11:42:29;;;;;;;4.88;2.67;;;10.10;99.90;;;;;;5050139;28;20623;-65
2023/11/03 11:44:57;;;;;;;3.17;2.03;;;10.10;99.90;;;;;;5049993;28;20209;-65
2023/11/03 11:47:24;;;;;;;2.50;2.30;;;10.10;99.90;;;;;;5049687;28;20493;-65
2023/11/03 11:49:52;;;;;;;4.47;2.17;;;10.10;99.90;;;;;;5049627;28;20449;-65
2023/11/03 11:52:22;;;;;;;4.37;3.77;;;10.10;99.90;;;;;;5049646;28;20448;-65
2023/11/03 11:54:49;;;;;;;2.30;2.20;;;10.20;99.90;;;;;;5049735;28;20507;-65
2023/11/03 11:57:17;;;;;;;3.23;1.90;;;10.10;99.90;;;;;;5049426;28;20464;-65
2023/11/03 11:59:47;;;;;;;2.93;1.90;;;10.10;99.90;;;;;;5050051;28;20452;-64
2023/11/03 12:02:13;;;;;;;5.80;2.77;;;10.10;99.90;;;;;;5049766;28;20444;-65
2023/11/03 12:04:41;;;;;;;7.27;2.30;;;10.10;99.90;;;;;;5049622;28;20516;-65
2023/11/03 12:07:08;;;;;;;3.40;1.83;;;10.10;99.90;;;;;;5049233;28;20877;-65
2023/11/03 12:09:37;;;;;;;2.70;1.43;;;10.10;99.90;;;;;;5049618;28;20531;-65
2023/11/03 12:12:05;;;;;;;2.97;2.20;;;10.10;99.90;;;;;;5033050;28;20441;-64
2023/11/03 12:14:31;;;;;;;3.43;2.70;;;10.10;99.90;;;;;;5049367;28;21022;-64
2023/11/03 12:17:00;;;;;;;5.27;2.80;;;10.10;99.90;;;;;;5051923;28;20464;-65
2023/11/03 12:19:27;;;;;;;3.53;1.90;;;10.10;99.90;;;;;;5052989;28;20448;-64
2023/11/03 12:21:54;;;;;;;5.23;2.20;;;10.10;99.90;;;;;;5052141;28;20452;-65
2023/11/03 12:24:22;;;;;;;2.83;1.85;;;10.00;99.90;;;;;;5052874;28;20433;-64
2023/11/03 12:26:49;;;;;;;2.90;2.40;;;10.00;99.90;;;;;;5049778;28;20287;-64
2023/11/03 12:29:40;;;;;;;4.80;2.78;;;10.00;99.90;;;;;;5041939;28;20295;-65
2023/11/03 12:32:08;;;;;;;5.78;2.47;;;9.90;99.90;;;;;;5032762;28;20749;-64
2023/11/03 12:34:36;;;;;;;2.10;2.00;;;9.90;99.90;;;;;;5052664;28;20226;-65
2023/11/03 12:37:05;;;;;;;2.23;2.10;;;10.00;99.90;;;;;;5051365;28;21122;-65
2023/11/03 12:39:46;;;;;;;5.23;4.70;;;10.00;99.90;;;;;;5053295;28;20807;-64
2023/11/03 12:42:12;;;;;;;3.20;2.80;;;10.00;99.90;;;;;;5052867;28;20517;-64
2023/11/03 12:44:56;;;;;;;9.33;4.40;;;10.10;99.90;;;;;;5052893;28;20946;-65
2023/11/03 12:47:44;;;;;;;2.40;1.63;;;10.10;99.90;;;;;;5052345;28;20460;-64
2023/11/03 12:50:16;;;;;;;4.57;3.30;;;10.20;99.90;;;;;;5037571;28;20442;-64
2023/11/03 12:52:44;;;;;;;2.43;2.07;;;10.20;99.90;;;;;;5052762;28;20472;-65
2023/11/03 12:55:11;;;;;;;4.47;2.07;;;10.20;99.90;;;;;;5052095;28;20523;-65
2023/11/03 12:57:39;;;;;;;3.70;2.13;;;10.20;99.90;;;;;;5051926;28;20445;-64
2023/11/03 13:00:09;;;;;;;3.20;1.70;;;10.20;99.90;;;;;;5036635;28;20536;-64